sensor_id;sensor_type;location;lat;lon;timestamp;pressure;altitude;pressure_sealevel;temperature;humidity
35489;BME280;21602;55.670;37.578;2022-11-25T00:01:36;99821.66;;;-4.58;88.25
35489;BME280;21602;55.670;37.578;2022-11-25T00:04:03;99826.28;;;-4.51;88.06
35489;BME280;21602;55.670;37.578;2022-11-25T00:06:33;99825.91;;;-4.46;87.82
35489;BME280;21602;55.670;37.578;2022-11-25T00:11:27;99821.75;;;-4.49;87.65
35489;BME280;21602;55.670;37.578;2022-11-25T00:13:54;99832.31;;;-4.50;87.36
35489;BME280;21602;55.670;37.578;2022-11-25T00:16:20;99826.16;;;-4.60;87.18
35489;BME280;21602;55.670;37.578;2022-11-25T00:18:47;99822.34;;;-4.56;87.31
35489;BME280;21602;55.670;37.578;2022-11-25T00:21:14;99828.44;;;-4.67;86.85
35489;BME280;21602;55.670;37.578;2022-11-25T00:23:40;99838.28;;;-4.71;86.90
35489;BME280;21602;55.670;37.578;2022-11-25T00:26:07;99838.28;;;-4.71;87.18
35489;BME280;21602;55.670;37.578;2022-11-25T00:28:32;99844.22;;;-4.69;87.09
35489;BME280;21602;55.670;37.578;2022-11-25T00:31:07;99844.22;;;-4.69;86.77
35489;BME280;21602;55.670;37.578;2022-11-25T00:33:34;99845.72;;;-4.66;86.70
35489;BME280;21602;55.670;37.578;2022-11-25T00:36:00;99845.34;;;-4.61;86.49
35489;BME280;21602;55.670;37.578;2022-11-25T00:38:26;99845.34;;;-4.61;86.25
35489;BME280;21602;55.670;37.578;2022-11-25T00:40:52;99841.78;;;-4.60;86.15
35489;BME280;21602;55.670;37.578;2022-11-25T00:43:36;99846.81;;;-4.69;86.47
35489;BME280;21602;55.670;37.578;2022-11-25T00:46:20;99843.84;;;-4.64;86.20
35489;BME280;21602;55.670;37.578;2022-11-25T00:48:45;99836.88;;;-4.75;85.96
35489;BME280;21602;55.670;37.578;2022-11-25T00:51:11;99843.31;;;-4.90;85.92
35489;BME280;21602;55.670;37.578;2022-11-25T00:53:37;99842.50;;;-4.91;86.16
35489;BME280;21602;55.670;37.578;2022-11-25T00:56:02;99854.00;;;-4.93;86.09
35489;BME280;21602;55.670;37.578;2022-11-25T00:58:40;99848.88;;;-4.83;86.18
35489;BME280;21602;55.670;37.578;2022-11-25T01:01:06;99851.81;;;-4.77;86.13
35489;BME280;21602;55.670;37.578;2022-11-25T01:03:33;99851.59;;;-4.85;85.53
35489;BME280;21602;55.670;37.578;2022-11-25T01:06:06;99849.16;;;-4.98;85.85
35489;BME280;21602;55.670;37.578;2022-11-25T01:08:33;99849.84;;;-4.96;86.35
35489;BME280;21602;55.670;37.578;2022-11-25T01:11:00;99849.56;;;-4.81;86.20
35489;BME280;21602;55.670;37.578;2022-11-25T01:13:25;99852.84;;;-4.68;85.81
35489;BME280;21602;55.670;37.578;2022-11-25T01:15:51;99856.75;;;-4.63;85.82
35489;BME280;21602;55.670;37.578;2022-11-25T01:18:17;99859.56;;;-4.54;85.68
35489;BME280;21602;55.670;37.578;2022-11-25T01:20:42;99847.66;;;-4.47;85.25
35489;BME280;21602;55.670;37.578;2022-11-25T01:23:08;99860.00;;;-4.49;84.88
35489;BME280;21602;55.670;37.578;2022-11-25T01:25:40;99858.59;;;-4.53;84.98
35489;BME280;21602;55.670;37.578;2022-11-25T01:28:05;99864.50;;;-4.51;85.02
35489;BME280;21602;55.670;37.578;2022-11-25T01:30:31;99866.19;;;-4.61;84.59
35489;BME280;21602;55.670;37.578;2022-11-25T01:32:57;99877.06;;;-4.56;85.05
35489;BME280;21602;55.670;37.578;2022-11-25T01:35:25;99875.81;;;-4.62;84.80
35489;BME280;21602;55.670;37.578;2022-11-25T01:37:50;99875.66;;;-4.60;84.91
35489;BME280;21602;55.670;37.578;2022-11-25T01:40:16;99873.53;;;-4.55;85.00
35489;BME280;21602;55.670;37.578;2022-11-25T01:42:44;99876.59;;;-4.50;85.02
35489;BME280;21602;55.670;37.578;2022-11-25T01:47:49;99882.56;;;-4.71;85.17
35489;BME280;21602;55.670;37.578;2022-11-25T01:50:16;99875.94;;;-4.64;85.63
35489;BME280;21602;55.670;37.578;2022-11-25T01:52:43;99882.41;;;-4.58;85.69
35489;BME280;21602;55.670;37.578;2022-11-25T02:00:22;99878.75;;;-4.55;85.25
35489;BME280;21602;55.670;37.578;2022-11-25T02:02:49;99878.84;;;-4.57;85.78
35489;BME280;21602;55.670;37.578;2022-11-25T02:05:16;99876.53;;;-4.71;85.70
35489;BME280;21602;55.670;37.578;2022-11-25T02:07:43;99881.16;;;-4.75;86.18
35489;BME280;21602;55.670;37.578;2022-11-25T02:10:11;99882.56;;;-4.71;86.64
35489;BME280;21602;55.670;37.578;2022-11-25T02:12:41;99884.94;;;-4.68;86.31
35489;BME280;21602;55.670;37.578;2022-11-25T02:15:07;99886.34;;;-4.64;86.59
35489;BME280;21602;55.670;37.578;2022-11-25T02:17:36;99884.91;;;-4.56;86.44
35489;BME280;21602;55.670;37.578;2022-11-25T02:20:06;99880.88;;;-4.60;86.32
35489;BME280;21602;55.670;37.578;2022-11-25T02:25:19;99872.59;;;-4.66;86.47
35489;BME280;21602;55.670;37.578;2022-11-25T02:27:46;99867.41;;;-4.66;86.54
35489;BME280;21602;55.670;37.578;2022-11-25T02:30:14;99874.75;;;-4.71;86.37
35489;BME280;21602;55.670;37.578;2022-11-25T02:32:45;99873.75;;;-4.91;86.70
35489;BME280;21602;55.670;37.578;2022-11-25T02:37:49;99876.00;;;-5.08;87.64
35489;BME280;21602;55.670;37.578;2022-11-25T02:40:15;99889.03;;;-4.97;87.89
35489;BME280;21602;55.670;37.578;2022-11-25T02:42:42;99886.31;;;-4.96;87.68
35489;BME280;21602;55.670;37.578;2022-11-25T02:45:11;99889.28;;;-5.00;87.54
35489;BME280;21602;55.670;37.578;2022-11-25T02:47:39;99900.28;;;-4.97;87.74
35489;BME280;21602;55.670;37.578;2022-11-25T02:50:05;99893.75;;;-4.91;87.80
35489;BME280;21602;55.670;37.578;2022-11-25T02:52:31;99890.00;;;-4.98;87.47
35489;BME280;21602;55.670;37.578;2022-11-25T02:54:56;99895.75;;;-4.95;87.64
35489;BME280;21602;55.670;37.578;2022-11-25T02:57:22;99905.34;;;-4.84;87.73
35489;BME280;21602;55.670;37.578;2022-11-25T02:59:48;99909.81;;;-4.64;87.48
35489;BME280;21602;55.670;37.578;2022-11-25T03:02:13;99911.03;;;-4.47;87.33
35489;BME280;21602;55.670;37.578;2022-11-25T03:04:41;99916.09;;;-4.34;86.48
35489;BME280;21602;55.670;37.578;2022-11-25T03:07:07;99914.50;;;-4.46;85.89
35489;BME280;21602;55.670;37.578;2022-11-25T03:09:32;99918.47;;;-4.42;86.11
35489;BME280;21602;55.670;37.578;2022-11-25T03:11:58;99912.81;;;-4.47;85.49
35489;BME280;21602;55.670;37.578;2022-11-25T03:14:43;99923.31;;;-4.38;85.94
35489;BME280;21602;55.670;37.578;2022-11-25T03:17:08;99921.09;;;-4.42;85.18
35489;BME280;21602;55.670;37.578;2022-11-25T03:19:34;99923.16;;;-4.57;84.95
35489;BME280;21602;55.670;37.578;2022-11-25T03:21:59;99933.75;;;-4.70;85.17
35489;BME280;21602;55.670;37.578;2022-11-25T03:24:25;99935.59;;;-4.60;85.71
35489;BME280;21602;55.670;37.578;2022-11-25T03:26:51;99940.69;;;-4.59;85.57
35489;BME280;21602;55.670;37.578;2022-11-25T03:29:17;99947.19;;;-4.53;85.70
35489;BME280;21602;55.670;37.578;2022-11-25T03:31:42;99952.88;;;-4.48;85.89
35489;BME280;21602;55.670;37.578;2022-11-25T03:34:09;99944.34;;;-4.50;85.49
35489;BME280;21602;55.670;37.578;2022-11-25T03:36:35;99955.16;;;-4.55;85.20
35489;BME280;21602;55.670;37.578;2022-11-25T03:39:01;99954.69;;;-4.60;85.19
35489;BME280;21602;55.670;37.578;2022-11-25T03:41:26;99955.00;;;-4.53;85.94
35489;BME280;21602;55.670;37.578;2022-11-25T03:43:52;99954.19;;;-4.54;85.57
35489;BME280;21602;55.670;37.578;2022-11-25T03:46:18;99951.72;;;-4.55;85.56
35489;BME280;21602;55.670;37.578;2022-11-25T03:48:44;99965.56;;;-4.66;85.60
35489;BME280;21602;55.670;37.578;2022-11-25T03:51:10;99965.47;;;-4.65;85.79
35489;BME280;21602;55.670;37.578;2022-11-25T03:53:36;99969.94;;;-4.67;85.96
35489;BME280;21602;55.670;37.578;2022-11-25T03:56:05;99972.91;;;-4.71;86.13
35489;BME280;21602;55.670;37.578;2022-11-25T03:58:30;99968.53;;;-4.71;85.81
35489;BME280;21602;55.670;37.578;2022-11-25T04:01:00;99974.34;;;-4.67;86.20
35489;BME280;21602;55.670;37.578;2022-11-25T04:03:26;99970.53;;;-4.63;86.12
35489;BME280;21602;55.670;37.578;2022-11-25T04:05:52;99969.00;;;-4.54;86.22
35489;BME280;21602;55.670;37.578;2022-11-25T04:08:17;99969.94;;;-4.55;86.17
35489;BME280;21602;55.670;37.578;2022-11-25T04:10:44;99962.72;;;-4.63;86.29
35489;BME280;21602;55.670;37.578;2022-11-25T04:13:13;99965.81;;;-4.69;86.38
35489;BME280;21602;55.670;37.578;2022-11-25T04:15:47;99973.50;;;-4.68;86.98
35489;BME280;21602;55.670;37.578;2022-11-25T04:18:15;99976.34;;;-4.71;86.99
35489;BME280;21602;55.670;37.578;2022-11-25T04:20:41;99986.56;;;-4.79;87.08
35489;BME280;21602;55.670;37.578;2022-11-25T04:23:07;99984.66;;;-4.77;87.26
35489;BME280;21602;55.670;37.578;2022-11-25T04:25:39;99982.75;;;-4.75;87.35
35489;BME280;21602;55.670;37.578;2022-11-25T04:28:10;99989.38;;;-4.71;87.41
35489;BME280;21602;55.670;37.578;2022-11-25T04:30:36;99986.31;;;-4.65;87.31
35489;BME280;21602;55.670;37.578;2022-11-25T04:33:02;99982.63;;;-4.62;87.40
35489;BME280;21602;55.670;37.578;2022-11-25T04:35:28;99982.13;;;-4.56;87.17
35489;BME280;21602;55.670;37.578;2022-11-25T04:37:55;99973.13;;;-4.52;87.18
35489;BME280;21602;55.670;37.578;2022-11-25T04:40:22;99982.50;;;-4.49;87.07
35489;BME280;21602;55.670;37.578;2022-11-25T04:42:56;99973.13;;;-4.52;87.09
35489;BME280;21602;55.670;37.578;2022-11-25T04:45:21;99979.41;;;-4.54;87.19
35489;BME280;21602;55.670;37.578;2022-11-25T04:47:47;99977.28;;;-4.49;87.46
35489;BME280;21602;55.670;37.578;2022-11-25T04:50:14;99976.94;;;-4.67;87.36
35489;BME280;21602;55.670;37.578;2022-11-25T04:52:50;99985.84;;;-4.70;87.86
35489;BME280;21602;55.670;37.578;2022-11-25T04:55:16;99982.50;;;-4.72;87.91
35489;BME280;21602;55.670;37.578;2022-11-25T04:57:42;99985.34;;;-4.64;88.09
35489;BME280;21602;55.670;37.578;2022-11-25T05:00:10;99987.94;;;-4.52;88.06
35489;BME280;21602;55.670;37.578;2022-11-25T05:02:37;99996.69;;;-4.53;87.88
35489;BME280;21602;55.670;37.578;2022-11-25T05:05:08;99981.75;;;-4.51;87.79
35489;BME280;21602;55.670;37.578;2022-11-25T05:07:34;99988.41;;;-4.58;88.21
35489;BME280;21602;55.670;37.578;2022-11-25T05:10:00;99991.38;;;-4.63;88.40
35489;BME280;21602;55.670;37.578;2022-11-25T05:12:39;99982.88;;;-4.65;88.26
35489;BME280;21602;55.670;37.578;2022-11-25T05:15:09;99983.50;;;-4.84;88.94
35489;BME280;21602;55.670;37.578;2022-11-25T05:17:37;99989.97;;;-4.90;89.37
35489;BME280;21602;55.670;37.578;2022-11-25T05:20:04;99989.16;;;-4.90;89.90
35489;BME280;21602;55.670;37.578;2022-11-25T05:22:32;99990.56;;;-4.86;89.96
35489;BME280;21602;55.670;37.578;2022-11-25T05:24:57;99990.94;;;-4.79;90.33
35489;BME280;21602;55.670;37.578;2022-11-25T05:27:24;99995.53;;;-4.72;90.09
35489;BME280;21602;55.670;37.578;2022-11-25T05:29:50;99996.25;;;-4.70;90.00
35489;BME280;21602;55.670;37.578;2022-11-25T05:32:16;99992.56;;;-4.67;89.90
35489;BME280;21602;55.670;37.578;2022-11-25T05:34:42;99992.94;;;-4.72;89.97
35489;BME280;21602;55.670;37.578;2022-11-25T05:37:08;99995.28;;;-4.80;90.43
35489;BME280;21602;55.670;37.578;2022-11-25T05:39:36;100000.50;;;-4.80;90.67
35489;BME280;21602;55.670;37.578;2022-11-25T05:42:25;100002.16;;;-4.90;90.88
35489;BME280;21602;55.670;37.578;2022-11-25T05:44:51;100010.34;;;-4.95;91.11
35489;BME280;21602;55.670;37.578;2022-11-25T05:47:17;100011.28;;;-4.96;91.35
35489;BME280;21602;55.670;37.578;2022-11-25T05:49:43;100012.38;;;-4.98;91.61
35489;BME280;21602;55.670;37.578;2022-11-25T05:52:08;100015.78;;;-4.86;91.78
35489;BME280;21602;55.670;37.578;2022-11-25T05:54:42;100011.41;;;-4.97;91.76
35489;BME280;21602;55.670;37.578;2022-11-25T05:57:08;100010.94;;;-5.02;91.82
35489;BME280;21602;55.670;37.578;2022-11-25T05:59:50;100010.69;;;-4.99;91.91
35489;BME280;21602;55.670;37.578;2022-11-25T06:02:22;100010.25;;;-4.93;92.23
35489;BME280;21602;55.670;37.578;2022-11-25T06:04:49;100011.16;;;-4.94;92.09
35489;BME280;21602;55.670;37.578;2022-11-25T06:07:15;100022.91;;;-4.88;92.10
35489;BME280;21602;55.670;37.578;2022-11-25T06:09:41;100012.84;;;-4.82;91.78
35489;BME280;21602;55.670;37.578;2022-11-25T06:12:06;100019.47;;;-4.78;91.79
35489;BME280;21602;55.670;37.578;2022-11-25T06:14:37;100028.81;;;-4.75;91.60
35489;BME280;21602;55.670;37.578;2022-11-25T06:17:03;100026.19;;;-4.75;91.65
35489;BME280;21602;55.670;37.578;2022-11-25T06:19:43;100031.78;;;-4.69;91.42
35489;BME280;21602;55.670;37.578;2022-11-25T06:22:09;100032.94;;;-4.61;91.18
35489;BME280;21602;55.670;37.578;2022-11-25T06:24:34;100041.84;;;-4.64;91.23
35489;BME280;21602;55.670;37.578;2022-11-25T06:27:04;100046.09;;;-4.63;91.08
35489;BME280;21602;55.670;37.578;2022-11-25T06:29:31;100049.53;;;-4.63;91.52
35489;BME280;21602;55.670;37.578;2022-11-25T06:31:56;100053.44;;;-4.68;91.28
35489;BME280;21602;55.670;37.578;2022-11-25T06:34:34;100052.16;;;-4.74;91.38
35489;BME280;21602;55.670;37.578;2022-11-25T06:37:02;100053.56;;;-4.81;91.84
35489;BME280;21602;55.670;37.578;2022-11-25T06:39:28;100048.94;;;-4.77;92.25
35489;BME280;21602;55.670;37.578;2022-11-25T06:41:53;100045.75;;;-4.70;91.69
35489;BME280;21602;55.670;37.578;2022-11-25T06:44:19;100042.19;;;-4.57;91.91
35489;BME280;21602;55.670;37.578;2022-11-25T06:46:45;100049.50;;;-4.51;91.42
35489;BME280;21602;55.670;37.578;2022-11-25T06:49:10;100048.31;;;-4.47;91.11
35489;BME280;21602;55.670;37.578;2022-11-25T06:51:36;100051.06;;;-4.49;91.10
35489;BME280;21602;55.670;37.578;2022-11-25T06:54:01;100053.81;;;-4.50;90.62
35489;BME280;21602;55.670;37.578;2022-11-25T06:56:27;100050.25;;;-4.49;90.58
35489;BME280;21602;55.670;37.578;2022-11-25T06:58:53;100058.06;;;-4.49;90.66
35489;BME280;21602;55.670;37.578;2022-11-25T07:01:19;100068.94;;;-4.44;90.68
35489;BME280;21602;55.670;37.578;2022-11-25T07:03:46;100065.84;;;-4.38;90.62
35489;BME280;21602;55.670;37.578;2022-11-25T07:06:12;100068.59;;;-4.40;90.21
35489;BME280;21602;55.670;37.578;2022-11-25T07:08:38;100070.59;;;-4.43;90.16
35489;BME280;21602;55.670;37.578;2022-11-25T07:11:05;100069.53;;;-4.52;90.42
35489;BME280;21602;55.670;37.578;2022-11-25T07:13:31;100072.75;;;-4.48;90.67
35489;BME280;21602;55.670;37.578;2022-11-25T07:16:03;100075.81;;;-4.43;90.78
35489;BME280;21602;55.670;37.578;2022-11-25T07:18:30;100073.34;;;-4.45;90.71
35489;BME280;21602;55.670;37.578;2022-11-25T07:20:59;100079.16;;;-4.41;90.83
35489;BME280;21602;55.670;37.578;2022-11-25T07:23:25;100077.00;;;-4.47;90.85
35489;BME280;21602;55.670;37.578;2022-11-25T07:25:51;100073.06;;;-4.42;91.05
35489;BME280;21602;55.670;37.578;2022-11-25T07:28:17;100078.88;;;-4.38;90.80
35489;BME280;21602;55.670;37.578;2022-11-25T07:30:43;100081.03;;;-4.32;90.42
35489;BME280;21602;55.670;37.578;2022-11-25T07:33:08;100082.69;;;-4.31;90.49
35489;BME280;21602;55.670;37.578;2022-11-25T07:35:34;100084.34;;;-4.30;90.52
35489;BME280;21602;55.670;37.578;2022-11-25T07:38:00;100083.63;;;-4.43;90.42
35489;BME280;21602;55.670;37.578;2022-11-25T07:40:25;100093.22;;;-4.44;91.06
35489;BME280;21602;55.670;37.578;2022-11-25T07:42:51;100087.66;;;-4.39;90.98
35489;BME280;21602;55.670;37.578;2022-11-25T07:45:16;100088.34;;;-4.37;91.09
35489;BME280;21602;55.670;37.578;2022-11-25T07:47:49;100083.63;;;-4.32;90.61
35489;BME280;21602;55.670;37.578;2022-11-25T07:50:14;100087.31;;;-4.34;90.56
35489;BME280;21602;55.670;37.578;2022-11-25T07:52:40;100091.44;;;-4.43;90.36
35489;BME280;21602;55.670;37.578;2022-11-25T07:55:06;100092.88;;;-4.39;90.72
35489;BME280;21602;55.670;37.578;2022-11-25T07:57:32;100091.69;;;-4.35;90.40
35489;BME280;21602;55.670;37.578;2022-11-25T07:59:57;100083.41;;;-4.40;90.08
35489;BME280;21602;55.670;37.578;2022-11-25T08:02:23;100090.03;;;-4.47;90.47
35489;BME280;21602;55.670;37.578;2022-11-25T08:04:48;100096.91;;;-4.46;90.57
35489;BME280;21602;55.670;37.578;2022-11-25T08:07:14;100103.53;;;-4.42;90.68
35489;BME280;21602;55.670;37.578;2022-11-25T08:09:39;100105.66;;;-4.47;90.36
35489;BME280;21602;55.670;37.578;2022-11-25T08:12:05;100106.38;;;-4.45;90.56
35489;BME280;21602;55.670;37.578;2022-11-25T08:14:31;100105.81;;;-4.60;90.68
35489;BME280;21602;55.670;37.578;2022-11-25T08:16:57;100105.81;;;-4.60;90.77
35489;BME280;21602;55.670;37.578;2022-11-25T08:19:22;100106.28;;;-4.55;91.22
35489;BME280;21602;55.670;37.578;2022-11-25T08:21:48;100114.66;;;-4.51;91.08
35489;BME280;21602;55.670;37.578;2022-11-25T08:24:14;100116.91;;;-4.47;90.84
35489;BME280;21602;55.670;37.578;2022-11-25T08:26:40;100115.72;;;-4.43;90.65
35489;BME280;21602;55.670;37.578;2022-11-25T08:29:06;100111.13;;;-4.39;90.37
35489;BME280;21602;55.670;37.578;2022-11-25T08:31:33;100112.78;;;-4.38;90.04
35489;BME280;21602;55.670;37.578;2022-11-25T08:33:59;100104.72;;;-4.35;90.04
35489;BME280;21602;55.670;37.578;2022-11-25T08:36:25;100107.34;;;-4.35;89.70
35489;BME280;21602;55.670;37.578;2022-11-25T08:38:51;100114.19;;;-4.34;89.72
35489;BME280;21602;55.670;37.578;2022-11-25T08:41:21;100113.25;;;-4.33;89.76
35489;BME280;21602;55.670;37.578;2022-11-25T08:43:47;100117.03;;;-4.37;89.66
35489;BME280;21602;55.670;37.578;2022-11-25T08:46:14;100108.41;;;-4.26;89.98
35489;BME280;21602;55.670;37.578;2022-11-25T08:48:40;100116.56;;;-4.31;89.51
35489;BME280;21602;55.670;37.578;2022-11-25T08:51:07;100111.94;;;-4.27;89.71
35489;BME280;21602;55.670;37.578;2022-11-25T08:53:33;100110.19;;;-4.27;89.66
35489;BME280;21602;55.670;37.578;2022-11-25T08:55:59;100115.84;;;-4.22;90.07
35489;BME280;21602;55.670;37.578;2022-11-25T08:58:24;100117.28;;;-4.18;89.52
35489;BME280;21602;55.670;37.578;2022-11-25T09:00:50;100118.56;;;-4.12;89.50
35489;BME280;21602;55.670;37.578;2022-11-25T09:03:15;100120.09;;;-4.09;89.56
35489;BME280;21602;55.670;37.578;2022-11-25T09:05:41;100121.50;;;-4.05;89.52
35489;BME280;21602;55.670;37.578;2022-11-25T09:08:08;100121.75;;;-3.97;89.11
35489;BME280;21602;55.670;37.578;2022-11-25T09:10:34;100119.38;;;-4.00;88.46
35489;BME280;21602;55.670;37.578;2022-11-25T09:13:00;100122.47;;;-4.06;88.60
35489;BME280;21602;55.670;37.578;2022-11-25T09:15:25;100124.25;;;-4.07;88.81
35489;BME280;21602;55.670;37.578;2022-11-25T09:18:02;100127.09;;;-4.10;88.73
35489;BME280;21602;55.670;37.578;2022-11-25T09:20:28;100129.47;;;-4.07;88.98
35489;BME280;21602;55.670;37.578;2022-11-25T09:22:53;100125.31;;;-4.09;88.86
35489;BME280;21602;55.670;37.578;2022-11-25T09:25:20;100118.31;;;-4.09;88.87
35489;BME280;21602;55.670;37.578;2022-11-25T09:27:45;100124.50;;;-4.21;88.72
35489;BME280;21602;55.670;37.578;2022-11-25T09:30:11;100125.09;;;-4.29;89.03
35489;BME280;21602;55.670;37.578;2022-11-25T09:32:37;100112.53;;;-4.35;89.38
35489;BME280;21602;55.670;37.578;2022-11-25T09:35:02;100105.66;;;-4.25;89.31
35489;BME280;21602;55.670;37.578;2022-11-25T09:37:28;100114.19;;;-4.23;89.08
35489;BME280;21602;55.670;37.578;2022-11-25T09:39:54;100116.09;;;-4.25;88.94
35489;BME280;21602;55.670;37.578;2022-11-25T09:45:13;100119.38;;;-4.23;88.60
35489;BME280;21602;55.670;37.578;2022-11-25T09:50:51;100111.22;;;-4.29;89.10
35489;BME280;21602;55.670;37.578;2022-11-25T09:53:23;100115.25;;;-4.25;88.94
35489;BME280;21602;55.670;37.578;2022-11-25T09:55:57;100112.06;;;-4.29;88.45
35489;BME280;21602;55.670;37.578;2022-11-25T09:58:28;100127.09;;;-4.32;88.85
35489;BME280;21602;55.670;37.578;2022-11-25T10:00:54;100125.59;;;-4.46;88.61
35489;BME280;21602;55.670;37.578;2022-11-25T10:06:20;100119.06;;;-4.29;88.95
35489;BME280;21602;55.670;37.578;2022-11-25T10:08:51;100122.25;;;-4.26;88.69
35489;BME280;21602;55.670;37.578;2022-11-25T10:16:41;100129.03;;;-4.46;88.56
35489;BME280;21602;55.670;37.578;2022-11-25T10:21:38;100125.19;;;-4.42;89.17
35489;BME280;21602;55.670;37.578;2022-11-25T10:24:04;100131.00;;;-4.38;89.12
35489;BME280;21602;55.670;37.578;2022-11-25T10:26:33;100136.47;;;-4.30;89.25
35489;BME280;21602;55.670;37.578;2022-11-25T10:29:16;100149.28;;;-4.27;89.01
35489;BME280;21602;55.670;37.578;2022-11-25T10:31:44;100145.47;;;-4.34;88.93
35489;BME280;21602;55.670;37.578;2022-11-25T10:34:11;100156.84;;;-4.35;89.16
35489;BME280;21602;55.670;37.578;2022-11-25T10:36:40;100160.28;;;-4.34;88.99
35489;BME280;21602;55.670;37.578;2022-11-25T10:39:12;100165.75;;;-4.26;89.03
35489;BME280;21602;55.670;37.578;2022-11-25T10:44:31;100161.09;;;-4.23;89.15
35489;BME280;21602;55.670;37.578;2022-11-25T10:49:38;100164.94;;;-4.27;88.95
35489;BME280;21602;55.670;37.578;2022-11-25T10:52:13;100171.78;;;-4.26;89.10
35489;BME280;21602;55.670;37.578;2022-11-25T10:54:39;100167.88;;;-4.31;88.78
35489;BME280;21602;55.670;37.578;2022-11-25T10:57:18;100173.22;;;-4.22;89.31
35489;BME280;21602;55.670;37.578;2022-11-25T10:59:53;100179.59;;;-4.15;88.65
35489;BME280;21602;55.670;37.578;2022-11-25T11:04:57;100171.31;;;-4.20;88.78
35489;BME280;21602;55.670;37.578;2022-11-25T11:07:23;100177.59;;;-4.22;89.06
35489;BME280;21602;55.670;37.578;2022-11-25T11:09:49;100171.66;;;-4.24;89.04
35489;BME280;21602;55.670;37.578;2022-11-25T11:12:20;100169.88;;;-4.24;89.26
35489;BME280;21602;55.670;37.578;2022-11-25T11:14:46;100172.63;;;-4.25;89.26
35489;BME280;21602;55.670;37.578;2022-11-25T11:17:25;100168.09;;;-4.23;89.46
35489;BME280;21602;55.670;37.578;2022-11-25T11:22:32;100165.75;;;-4.26;88.98
35489;BME280;21602;55.670;37.578;2022-11-25T11:25:59;100165.50;;;-4.23;89.03
35489;BME280;21602;55.670;37.578;2022-11-25T11:27:53;100164.31;;;-4.19;89.13
35489;BME280;21602;55.670;37.578;2022-11-25T11:30:20;100171.53;;;-4.23;89.08
35489;BME280;21602;55.670;37.578;2022-11-25T11:33:35;100173.78;;;-4.29;89.20
35489;BME280;21602;55.670;37.578;2022-11-25T11:38:01;100182.22;;;-4.26;89.34
35489;BME280;21602;55.670;37.578;2022-11-25T11:40:40;100184.47;;;-4.21;89.52
35489;BME280;21602;55.670;37.578;2022-11-25T11:48:20;100182.91;;;-4.35;89.54
35489;BME280;21602;55.670;37.578;2022-11-25T11:50:49;100184.22;;;-4.29;89.73
35489;BME280;21602;55.670;37.578;2022-11-25T12:06:45;100215.97;;;-4.24;89.34
35489;BME280;21602;55.670;37.578;2022-11-25T12:09:19;100212.06;;;-4.19;89.51
35489;BME280;21602;55.670;37.578;2022-11-25T12:11:48;100210.66;;;-4.12;89.07
35489;BME280;21602;55.670;37.578;2022-11-25T12:14:30;100208.41;;;-4.16;88.94
35489;BME280;21602;55.670;37.578;2022-11-25T12:16:58;100221.56;;;-4.18;88.97
35489;BME280;21602;55.670;37.578;2022-11-25T12:21:58;100209.00;;;-4.01;88.76
35489;BME280;21602;55.670;37.578;2022-11-25T12:24:30;100209.94;;;-4.02;88.49
35489;BME280;21602;55.670;37.578;2022-11-25T12:27:02;100217.53;;;-3.99;88.50
35489;BME280;21602;55.670;37.578;2022-11-25T12:29:34;100210.16;;;-3.94;88.76
35489;BME280;21602;55.670;37.578;2022-11-25T12:32:06;100208.41;;;-3.94;88.57
35489;BME280;21602;55.670;37.578;2022-11-25T12:34:37;100222.38;;;-3.95;88.61
35489;BME280;21602;55.670;37.578;2022-11-25T12:37:22;100223.69;;;-4.00;88.35
35489;BME280;21602;55.670;37.578;2022-11-25T12:39:55;100225.00;;;-4.06;88.90
35489;BME280;21602;55.670;37.578;2022-11-25T12:42:24;100220.84;;;-4.08;88.76
35489;BME280;21602;55.670;37.578;2022-11-25T12:47:18;100230.44;;;-4.09;89.31
35489;BME280;21602;55.670;37.578;2022-11-25T12:49:46;100223.34;;;-4.07;89.17
35489;BME280;21602;55.670;37.578;2022-11-25T13:00:16;100235.06;;;-4.24;89.65
35489;BME280;21602;55.670;37.578;2022-11-25T13:16:07;100251.44;;;-4.10;90.13
35489;BME280;21602;55.670;37.578;2022-11-25T13:18:36;100259.59;;;-4.04;89.68
35489;BME280;21602;55.670;37.578;2022-11-25T13:21:04;100262.69;;;-3.99;89.59
35489;BME280;21602;55.670;37.578;2022-11-25T13:23:38;100260.47;;;-4.03;89.39
35489;BME280;21602;55.670;37.578;2022-11-25T13:28:51;100264.47;;;-4.22;89.37
35489;BME280;21602;55.670;37.578;2022-11-25T13:31:18;100261.59;;;-4.19;89.76
35489;BME280;21602;55.670;37.578;2022-11-25T13:36:16;100259.13;;;-4.20;89.57
35489;BME280;21602;55.670;37.578;2022-11-25T13:48:55;100277.72;;;-4.25;89.97
35489;BME280;21602;55.670;37.578;2022-11-25T13:51:21;100277.50;;;-4.22;90.00
35489;BME280;21602;55.670;37.578;2022-11-25T13:54:00;100266.38;;;-4.13;89.87
35489;BME280;21602;55.670;37.578;2022-11-25T13:56:32;100270.28;;;-4.07;89.33
35489;BME280;21602;55.670;37.578;2022-11-25T14:01:40;100271.59;;;-4.13;88.12
35489;BME280;21602;55.670;37.578;2022-11-25T14:04:16;100270.72;;;-4.24;88.27
35489;BME280;21602;55.670;37.578;2022-11-25T14:12:04;100280.91;;;-4.32;88.63
35489;BME280;21602;55.670;37.578;2022-11-25T14:25:15;100282.66;;;-4.44;89.29
35489;BME280;21602;55.670;37.578;2022-11-25T14:27:44;100287.06;;;-4.45;89.14
35489;BME280;21602;55.670;37.578;2022-11-25T14:30:12;100277.22;;;-4.41;89.23
35489;BME280;21602;55.670;37.578;2022-11-25T14:32:39;100287.53;;;-4.40;89.38
35489;BME280;21602;55.670;37.578;2022-11-25T14:35:14;100286.94;;;-4.43;89.22
35489;BME280;21602;55.670;37.578;2022-11-25T14:40:08;100293.31;;;-4.47;89.38
35489;BME280;21602;55.670;37.578;2022-11-25T14:42:39;100304.69;;;-4.48;89.53
35489;BME280;21602;55.670;37.578;2022-11-25T14:45:21;100304.94;;;-4.40;89.52
35489;BME280;21602;55.670;37.578;2022-11-25T14:47:47;100299.50;;;-4.37;89.41
35489;BME280;21602;55.670;37.578;2022-11-25T14:50:19;100298.19;;;-4.43;89.50
35489;BME280;21602;55.670;37.578;2022-11-25T14:52:46;100304.03;;;-4.28;89.45
35489;BME280;21602;55.670;37.578;2022-11-25T14:55:12;100302.16;;;-4.26;89.10
35489;BME280;21602;55.670;37.578;2022-11-25T14:57:39;100300.50;;;-4.27;89.23